Time;durP1;ratioP1;P1;durP2;ratioP2;P2;SDS_P1;SDS_P2;PMS_P1;PMS_P2;Temp;Humidity;BMP_temperature;BMP_pressure;BME280_temperature;BME280_humidity;BME280_pressure;Samples;Min_cycle;Max_cycle;Signal;HPM_P1;HPM_P2
2022/11/26 00:02:13;;;;;;;;;;;16.40;46.50;;;;;;8334507;28;19928;-46
2022/11/26 00:06:47;;;;;;;;;;;16.40;46.50;;;;;;8334208;28;19978;-46
2022/11/26 00:10:51;;;;;;;;;;;16.40;46.50;;;;;;8289143;28;20026;-45
2022/11/26 00:14:51;;;;;;;;;;;16.40;46.50;;;;;;8318638;28;19921;-45
2022/11/26 00:18:52;;;;;;;;;;;16.40;46.40;;;;;;8333605;28;19917;-46
2022/11/26 00:22:53;;;;;;;;;;;16.40;46.40;;;;;;8333630;28;20390;-47
2022/11/26 00:26:55;;;;;;;;;;;16.40;46.40;;;;;;8333895;28;19918;-46
2022/11/26 00:30:58;;;;;;;;;;;16.40;46.40;;;;;;8333123;28;19917;-47
2022/11/26 00:34:58;;;;;;;;;;;16.40;46.40;;;;;;8333474;28;19917;-46
2022/11/26 00:39:03;;;;;;;;;;;16.30;46.40;;;;;;8332601;28;20393;-46
2022/11/26 00:43:05;;;;;;;;;;;16.30;46.50;;;;;;8332774;28;20305;-45
2022/11/26 00:47:05;;;;;;;;;;;16.30;46.40;;;;;;8333223;28;19917;-46
2022/11/26 00:51:08;;;;;;;;;;;16.30;46.40;;;;;;8332996;28;19974;-45
2022/11/26 00:55:15;;;;;;;;;;;16.30;46.40;;;;;;8332259;28;19917;-46
2022/11/26 00:59:20;;;;;;;;;;;16.30;46.40;;;;;;8332799;28;20400;-47
2022/11/26 01:03:20;;;;;;;;;;;16.20;46.40;;;;;;8332536;28;19945;-45
2022/11/26 01:07:21;;;;;;;;;;;16.30;46.40;;;;;;8332044;28;19921;-46
2022/11/26 01:11:22;;;;;;;;;;;16.30;46.40;;;;;;8332405;28;20297;-45
2022/11/26 01:15:23;;;;;;;;;;;16.30;46.40;;;;;;8332096;28;19995;-45
2022/11/26 01:19:24;;;;;;;;;;;16.30;46.40;;;;;;8331402;28;20009;-45
2022/11/26 01:23:24;;;;;;;;;;;16.20;46.30;;;;;;8332021;28;19917;-45
2022/11/26 01:27:25;;;;;;;;;;;16.20;46.30;;;;;;8331887;28;19937;-45
2022/11/26 01:31:26;;;;;;;;;;;16.30;46.30;;;;;;8331190;28;20366;-46
2022/11/26 01:35:27;;;;;;;;;;;16.30;46.30;;;;;;8331406;28;19928;-45
2022/11/26 01:39:27;;;;;;;;;;;16.30;46.30;;;;;;8330771;28;20394;-44
2022/11/26 01:43:32;;;;;;;;;;;16.30;46.30;;;;;;8331175;28;19928;-46
2022/11/26 01:47:32;;;;;;;;;;;16.30;46.20;;;;;;8331338;28;19913;-46
2022/11/26 01:51:32;;;;;;;;;;;16.30;46.20;;;;;;8330113;28;20429;-46
2022/11/26 01:55:34;;;;;;;;;;;16.30;46.20;;;;;;8331038;28;19917;-46
2022/11/26 01:59:38;;;;;;;;;;;16.30;46.20;;;;;;8330915;28;19952;-46
2022/11/26 02:03:41;;;;;;;;;;;16.30;46.20;;;;;;8330364;28;19951;-46
2022/11/26 02:07:42;;;;;;;;;;;16.30;46.20;;;;;;8330758;28;19922;-46
2022/11/26 02:11:43;;;;;;;;;;;16.30;46.20;;;;;;8324107;28;19925;-45
2022/11/26 02:15:55;;;;;;;;;;;16.40;46.20;;;;;;8329916;28;19971;-45
2022/11/26 02:19:59;;;;;;;;;;;16.40;46.20;;;;;;8330365;28;19932;-45
2022/11/26 02:24:24;;;;;;;;;;;16.30;46.10;;;;;;8330351;28;19924;-46
2022/11/26 02:28:34;;;;;;;;;;;16.30;46.10;;;;;;8328778;28;20016;-45
2022/11/26 02:32:44;;;;;;;;;;;16.30;46.20;;;;;;8330101;28;19918;-45
2022/11/26 02:36:54;;;;;;;;;;;16.30;46.20;;;;;;8329715;28;19928;-45
2022/11/26 02:40:54;;;;;;;;;;;16.30;46.20;;;;;;8330118;28;19925;-46
2022/11/26 02:44:57;;;;;;;;;;;16.30;46.20;;;;;;8329867;28;19917;-46
2022/11/26 02:48:58;;;;;;;;;;;16.30;46.30;;;;;;8329476;28;19920;-45
2022/11/26 02:52:59;;;;;;;;;;;16.30;46.30;;;;;;8330251;28;19920;-45
2022/11/26 02:57:00;;;;;;;;;;;16.30;46.30;;;;;;8330072;28;19917;-46
2022/11/26 03:01:04;;;;;;;;;;;16.30;46.30;;;;;;8330228;28;19949;-46
2022/11/26 03:05:05;;;;;;;;;;;16.20;46.30;;;;;;8335957;28;19917;-46
2022/11/26 03:09:05;;;;;;;;;;;16.20;46.30;;;;;;8335976;28;20239;-45
2022/11/26 03:13:06;;;;;;;;;;;16.20;46.20;;;;;;8335750;28;19971;-46
2022/11/26 03:17:06;;;;;;;;;;;16.20;46.30;;;;;;8335752;28;19921;-46
2022/11/26 03:21:07;;;;;;;;;;;16.20;46.20;;;;;;8335507;28;19929;-46
2022/11/26 03:25:08;;;;;;;;;;;16.20;46.20;;;;;;8335024;28;20010;-46
2022/11/26 03:29:08;;;;;;;;;;;16.20;46.30;;;;;;8335776;28;20366;-46
2022/11/26 03:33:08;;;;;;;;;;;16.20;46.30;;;;;;8335383;28;20011;-46
2022/11/26 03:37:09;;;;;;;;;;;16.20;46.20;;;;;;8334719;28;19917;-45
2022/11/26 03:41:09;;;;;;;;;;;16.20;46.20;;;;;;8335092;28;19925;-45
2022/11/26 03:45:10;;;;;;;;;;;16.20;46.20;;;;;;8335057;28;20004;-45
2022/11/26 03:49:11;;;;;;;;;;;16.30;46.20;;;;;;8334479;28;19921;-45
2022/11/26 03:53:11;;;;;;;;;;;16.30;46.20;;;;;;8335310;28;19935;-46
2022/11/26 03:57:12;;;;;;;;;;;16.30;46.20;;;;;;8334731;28;19917;-46
2022/11/26 04:01:12;;;;;;;;;;;16.30;46.20;;;;;;8333883;28;19951;-46
2022/11/26 04:05:13;;;;;;;;;;;16.30;46.20;;;;;;8334701;28;19913;-45
2022/11/26 04:09:13;;;;;;;;;;;16.30;46.10;;;;;;8334322;28;19959;-46
2022/11/26 04:13:16;;;;;;;;;;;16.30;46.10;;;;;;8331932;28;21368;-45
2022/11/26 04:17:16;;;;;;;;;;;16.30;46.20;;;;;;8333908;28;19928;-46
2022/11/26 04:21:16;;;;;;;;;;;16.30;46.10;;;;;;8333573;28;19951;-45
2022/11/26 04:25:17;;;;;;;;;;;16.30;46.20;;;;;;8333188;28;19975;-46
2022/11/26 04:29:17;;;;;;;;;;;16.30;46.20;;;;;;8333973;28;20378;-46
2022/11/26 04:33:18;;;;;;;;;;;16.30;46.10;;;;;;8333404;28;19964;-45
2022/11/26 04:37:18;;;;;;;;;;;16.30;46.10;;;;;;8332798;28;20290;-45
2022/11/26 04:41:19;;;;;;;;;;;16.30;46.10;;;;;;8333416;28;19928;-45
2022/11/26 04:45:19;;;;;;;;;;;16.30;46.10;;;;;;8333046;28;19917;-45
2022/11/26 04:49:20;;;;;;;;;;;16.30;46.10;;;;;;8332700;28;19966;-45
2022/11/26 04:53:20;;;;;;;;;;;16.30;46.10;;;;;;8332864;28;19924;-45
2022/11/26 04:57:21;;;;;;;;;;;16.30;46.10;;;;;;8332712;28;19920;-46
2022/11/26 05:01:21;;;;;;;;;;;16.30;46.10;;;;;;8331952;28;19926;-45
2022/11/26 05:05:22;;;;;;;;;;;16.30;46.10;;;;;;8331494;28;20316;-45
2022/11/26 05:09:22;;;;;;;;;;;16.30;46.10;;;;;;8332333;28;19932;-45
2022/11/26 05:13:23;;;;;;;;;;;16.30;46.10;;;;;;8331844;28;20393;-45
2022/11/26 05:17:23;;;;;;;;;;;16.30;46.10;;;;;;8332200;28;19924;-45
2022/11/26 05:21:24;;;;;;;;;;;16.30;46.10;;;;;;8331689;28;19925;-45
2022/11/26 05:25:24;;;;;;;;;;;16.30;46.20;;;;;;8331192;28;19917;-46
2022/11/26 05:29:25;;;;;;;;;;;16.20;46.20;;;;;;8331907;28;19921;-45
2022/11/26 05:33:25;;;;;;;;;;;16.20;46.10;;;;;;8331534;28;19964;-45
2022/11/26 05:37:26;;;;;;;;;;;16.20;46.20;;;;;;8331108;28;19917;-45
2022/11/26 05:41:26;;;;;;;;;;;16.20;46.20;;;;;;8331265;28;20401;-44
2022/11/26 05:45:27;;;;;;;;;;;16.20;46.10;;;;;;8330807;28;20378;-43
2022/11/26 05:49:27;;;;;;;;;;;16.20;46.20;;;;;;8331316;28;19913;-44
2022/11/26 05:53:29;;;;;;;;;;;16.20;46.20;;;;;;8330961;28;19923;-44
2022/11/26 05:57:29;;;;;;;;;;;16.20;46.20;;;;;;8351065;28;19970;-45
2022/11/26 06:01:30;;;;;;;;;;;16.20;46.20;;;;;;8363660;28;19967;-44
2022/11/26 06:05:30;;;;;;;;;;;16.20;46.10;;;;;;8364039;28;19923;-44
2022/11/26 06:09:31;;;;;;;;;;;16.20;46.20;;;;;;8363309;28;19927;-45
2022/11/26 06:13:31;;;;;;;;;;;16.10;46.10;;;;;;8363789;28;19963;-45
2022/11/26 06:17:32;;;;;;;;;;;16.10;46.10;;;;;;8363251;28;20366;-44
2022/11/26 06:21:32;;;;;;;;;;;16.10;46.10;;;;;;8362795;28;20336;-46
2022/11/26 06:25:33;;;;;;;;;;;16.10;46.10;;;;;;8363329;28;20293;-45
2022/11/26 06:29:33;;;;;;;;;;;16.10;46.10;;;;;;8363430;28;19913;-44
2022/11/26 06:33:34;;;;;;;;;;;16.10;46.10;;;;;;8362551;28;19917;-45
2022/11/26 06:37:34;;;;;;;;;;;16.10;46.10;;;;;;8362333;28;19963;-45
2022/11/26 06:41:35;;;;;;;;;;;16.10;46.10;;;;;;8362874;28;20305;-44
2022/11/26 06:45:35;;;;;;;;;;;16.10;46.00;;;;;;8362447;28;20297;-45
2022/11/26 06:49:36;;;;;;;;;;;16.10;46.10;;;;;;8363267;28;19912;-45
2022/11/26 06:53:37;;;;;;;;;;;16.10;46.00;;;;;;8362673;28;19921;-45
2022/11/26 06:57:37;;;;;;;;;;;16.10;46.00;;;;;;8362292;28;19921;-45
2022/11/26 07:01:37;;;;;;;;;;;16.10;46.00;;;;;;8362457;28;19929;-45
2022/11/26 07:05:38;;;;;;;;;;;16.10;46.20;;;;;;8362444;28;19924;-44
2022/11/26 07:09:39;;;;;;;;;;;16.10;46.00;;;;;;8362210;28;19967;-44
2022/11/26 07:13:39;;;;;;;;;;;16.10;46.00;;;;;;8362786;28;19917;-46
2022/11/26 07:17:40;;;;;;;;;;;16.10;46.00;;;;;;8362299;28;19917;-46
2022/11/26 07:21:41;;;;;;;;;;;16.10;46.00;;;;;;8362113;28;20428;-45
2022/11/26 07:25:41;;;;;;;;;;;16.10;46.00;;;;;;8362284;28;19952;-44
2022/11/26 07:29:41;;;;;;;;;;;16.10;46.00;;;;;;8362732;28;19955;-44
2022/11/26 07:33:42;;;;;;;;;;;16.10;46.00;;;;;;8361775;28;19917;-44
2022/11/26 07:37:42;;;;;;;;;;;16.10;46.00;;;;;;8361843;28;20026;-44
2022/11/26 07:41:43;;;;;;;;;;;16.10;46.00;;;;;;8361966;28;19947;-46
2022/11/26 07:45:43;;;;;;;;;;;16.10;46.00;;;;;;8361878;28;20262;-43
2022/11/26 07:49:44;;;;;;;;;;;16.10;46.10;;;;;;8365298;28;19916;-43
2022/11/26 07:53:44;;;;;;;;;;;16.10;46.10;;;;;;8367834;28;19939;-46
2022/11/26 07:57:45;;;;;;;;;;;16.10;46.10;;;;;;8367287;28;20358;-44
2022/11/26 08:01:45;;;;;;;;;;;16.10;46.00;;;;;;8367416;28;20146;-44
2022/11/26 08:05:46;;;;;;;;;;;16.10;46.10;;;;;;8367529;28;19916;-45
2022/11/26 08:09:46;;;;;;;;;;;16.10;46.00;;;;;;8349417;28;19963;-44
2022/11/26 08:13:47;;;;;;;;;;;16.10;46.10;;;;;;8325235;28;20297;-46
2022/11/26 08:17:47;;;;;;;;;;;16.10;46.10;;;;;;8333865;28;19932;-46
2022/11/26 08:21:48;;;;;;;;;;;16.10;46.10;;;;;;8333349;28;20319;-46
2022/11/26 08:25:48;;;;;;;;;;;16.10;46.10;;;;;;8333952;28;19917;-45
2022/11/26 08:29:49;;;;;;;;;;;16.10;46.10;;;;;;8333814;28;19917;-45
2022/11/26 08:33:49;;;;;;;;;;;16.10;46.10;;;;;;8333116;28;19996;-47
2022/11/26 08:37:49;;;;;;;;;;;16.10;46.10;;;;;;8333556;28;20282;-44
2022/11/26 08:41:50;;;;;;;;;;;16.10;46.00;;;;;;8333176;28;19928;-46
2022/11/26 08:45:52;;;;;;;;;;;16.10;46.00;;;;;;8332887;28;19924;-44
2022/11/26 08:49:52;;;;;;;;;;;16.10;46.00;;;;;;8333281;28;20005;-45
2022/11/26 08:53:53;;;;;;;;;;;16.10;46.00;;;;;;8333292;28;19921;-44
2022/11/26 08:57:53;;;;;;;;;;;16.20;46.00;;;;;;8332235;28;20381;-45
2022/11/26 09:01:53;;;;;;;;;;;16.20;46.00;;;;;;8332377;28;20318;-44
2022/11/26 09:05:54;;;;;;;;;;;16.20;46.00;;;;;;8332787;28;19917;-44
2022/11/26 09:09:54;;;;;;;;;;;16.20;46.00;;;;;;8331756;28;20071;-45
2022/11/26 09:13:56;;;;;;;;;;;16.20;46.00;;;;;;8332453;28;19918;-44
2022/11/26 09:17:56;;;;;;;;;;;16.20;46.00;;;;;;8332098;28;19913;-44
2022/11/26 09:21:57;;;;;;;;;;;16.20;46.00;;;;;;8331228;28;19925;-45
2022/11/26 09:25:58;;;;;;;;;;;16.20;46.00;;;;;;8332024;28;19913;-44
2022/11/26 09:29:58;;;;;;;;;;;16.20;46.10;;;;;;8331736;28;19917;-44
2022/11/26 09:34:00;;;;;;;;;;;16.20;46.10;;;;;;8330979;28;19917;-45
2022/11/26 09:38:00;;;;;;;;;;;16.20;46.10;;;;;;8331282;28;19913;-45
2022/11/26 09:42:04;;;;;;;;;;;16.20;46.10;;;;;;8331169;28;19979;-45
2022/11/26 09:46:05;;;;;;;;;;;16.20;46.10;;;;;;8331005;28;19968;-45
2022/11/26 09:50:12;;;;;;;;;;;16.20;46.10;;;;;;8331002;28;19921;-45
2022/11/26 09:54:17;;;;;;;;;;;16.20;46.00;;;;;;8330923;28;19913;-44
2022/11/26 09:58:31;;;;;;;;;;;16.20;46.10;;;;;;8330411;28;19924;-44
2022/11/26 10:02:32;;;;;;;;;;;16.20;46.10;;;;;;8330586;28;19925;-45
2022/11/26 10:06:53;;;;;;;;;;;16.20;46.10;;;;;;8330277;28;19939;-45
2022/11/26 10:10:55;;;;;;;;;;;16.20;46.10;;;;;;8330030;28;19933;-46
2022/11/26 10:14:59;;;;;;;;;;;16.20;46.10;;;;;;8330545;28;19944;-44
2022/11/26 10:19:11;;;;;;;;;;;16.20;46.10;;;;;;8330120;28;20317;-45
2022/11/26 10:23:11;;;;;;;;;;;16.20;46.10;;;;;;8330374;28;19929;-46
2022/11/26 10:27:14;;;;;;;;;;;16.20;46.10;;;;;;8330429;28;20011;-44
2022/11/26 10:31:18;;;;;;;;;;;16.20;46.10;;;;;;8330018;28;19913;-45
2022/11/26 10:35:26;;;;;;;;;;;16.20;46.10;;;;;;8330162;28;19917;-45
2022/11/26 10:39:27;;;;;;;;;;;16.30;46.10;;;;;;8329729;28;19917;-44
2022/11/26 10:43:28;;;;;;;;;;;16.30;46.10;;;;;;8329823;28;19925;-46
2022/11/26 10:47:29;;;;;;;;;;;16.30;46.10;;;;;;8329839;28;19924;-45
2022/11/26 10:51:32;;;;;;;;;;;16.30;46.10;;;;;;8329666;28;20003;-44
2022/11/26 10:55:38;;;;;;;;;;;16.30;46.10;;;;;;8329838;28;20425;-44
2022/11/26 10:59:47;;;;;;;;;;;16.30;46.10;;;;;;8329496;28;19928;-45
2022/11/26 11:03:52;;;;;;;;;;;16.30;46.10;;;;;;8329185;28;19921;-43
2022/11/26 11:07:53;;;;;;;;;;;16.30;46.10;;;;;;8310581;28;20016;-45
2022/11/26 11:12:12;;;;;;;;;;;16.30;46.10;;;;;;8329988;28;19913;-44
2022/11/26 11:16:21;;;;;;;;;;;16.40;46.00;;;;;;8329117;28;19964;-45
2022/11/26 11:20:25;;;;;;;;;;;16.40;46.00;;;;;;8329356;28;20409;-45
2022/11/26 11:24:27;;;;;;;;;;;16.50;46.00;;;;;;8334270;28;20219;-46
2022/11/26 11:28:29;;;;;;;;;;;16.50;46.00;;;;;;8335705;28;19921;-44
2022/11/26 11:32:32;;;;;;;;;;;16.50;45.90;;;;;;8335639;28;19913;-45
2022/11/26 11:36:33;;;;;;;;;;;16.50;46.10;;;;;;8335328;28;20362;-45
2022/11/26 11:40:39;;;;;;;;;;;16.50;46.00;;;;;;8335884;28;20067;-44
2022/11/26 11:44:44;;;;;;;;;;;16.50;46.10;;;;;;8335124;28;19941;-44
2022/11/26 11:48:53;;;;;;;;;;;16.60;46.20;;;;;;8334762;28;19921;-44
2022/11/26 11:53:12;;;;;;;;;;;16.60;46.10;;;;;;8335204;28;19925;-44
2022/11/26 11:57:19;;;;;;;;;;;16.60;46.10;;;;;;8335033;28;20349;-45
2022/11/26 12:01:25;;;;;;;;;;;16.60;46.10;;;;;;8333932;28;19932;-45
2022/11/26 12:05:38;;;;;;;;;;;16.60;46.20;;;;;;8334860;28;19975;-45
2022/11/26 12:09:59;;;;;;;;;;;16.60;46.20;;;;;;8333911;28;20353;-44
2022/11/26 12:14:05;;;;;;;;;;;16.60;46.20;;;;;;8323522;28;20269;-45
2022/11/26 12:18:15;;;;;;;;;;;16.60;46.20;;;;;;8334438;28;20385;-45
2022/11/26 12:22:48;;;;;;;;;;;16.60;46.10;;;;;;8333861;28;19936;-45
2022/11/26 12:26:52;;;;;;;;;;;16.60;46.10;;;;;;8300997;28;20389;-45
2022/11/26 12:30:55;;;;;;;;;;;16.60;46.10;;;;;;8333291;28;20386;-45
2022/11/26 12:34:57;;;;;;;;;;;16.60;46.10;;;;;;8332583;28;19924;-45
2022/11/26 12:39:00;;;;;;;;;;;16.60;46.10;;;;;;8333741;28;20449;-44
2022/11/26 12:43:24;;;;;;;;;;;16.60;46.10;;;;;;8332989;28;19921;-45
2022/11/26 12:47:31;;;;;;;;;;;16.60;46.10;;;;;;8333653;28;20377;-45
2022/11/26 12:51:31;;;;;;;;;;;16.60;46.10;;;;;;8332524;28;19928;-44
2022/11/26 12:55:37;;;;;;;;;;;16.60;46.10;;;;;;8333062;28;20370;-44
2022/11/26 12:59:56;;;;;;;;;;;16.60;46.20;;;;;;8332576;28;20275;-44
2022/11/26 13:03:57;;;;;;;;;;;16.60;46.20;;;;;;8332379;28;19928;-44
2022/11/26 13:07:57;;;;;;;;;;;16.60;46.20;;;;;;8332558;28;20023;-44
2022/11/26 13:12:14;;;;;;;;;;;16.60;46.20;;;;;;8333097;28;19917;-44
2022/11/26 13:16:20;;;;;;;;;;;16.60;46.20;;;;;;8331783;28;20022;-44
2022/11/26 13:20:41;;;;;;;;;;;16.60;46.20;;;;;;8331963;28;19925;-45
2022/11/26 13:24:48;;;;;;;;;;;16.60;46.20;;;;;;8331666;28;19913;-44
2022/11/26 13:28:58;;;;;;;;;;;16.60;46.20;;;;;;8332016;28;19959;-46
2022/11/26 13:33:17;;;;;;;;;;;16.60;46.20;;;;;;8332045;28;19952;-44
2022/11/26 13:37:22;;;;;;;;;;;16.60;46.20;;;;;;8331396;28;20000;-44
2022/11/26 13:41:28;;;;;;;;;;;16.60;46.20;;;;;;8331591;28;20417;-45
2022/11/26 13:45:47;;;;;;;;;;;16.60;46.20;;;;;;8330853;28;19920;-45
2022/11/26 13:49:51;;;;;;;;;;;16.60;46.20;;;;;;8331161;28;19974;-45
2022/11/26 13:53:55;;;;;;;;;;;16.60;46.20;;;;;;8331099;28;20297;-44
2022/11/26 13:57:57;;;;;;;;;;;16.60;46.20;;;;;;8330801;28;20366;-44
2022/11/26 14:01:58;;;;;;;;;;;16.60;46.20;;;;;;8331174;28;19935;-44
2022/11/26 14:05:58;;;;;;;;;;;16.60;46.30;;;;;;8330991;28;19918;-44
2022/11/26 14:10:00;;;;;;;;;;;16.60;46.20;;;;;;8327820;28;19921;-45
2022/11/26 14:14:21;;;;;;;;;;;16.60;46.20;;;;;;8303845;28;19913;-46
2022/11/26 14:18:40;;;;;;;;;;;16.60;46.80;;;;;;8319908;28;19917;-44
2022/11/26 14:22:41;;;;;;;;;;;16.60;46.30;;;;;;8330613;28;20012;-46
2022/11/26 14:26:41;;;;;;;;;;;16.60;46.30;;;;;;8330590;28;20267;-45
2022/11/26 14:30:42;;;;;;;;;;;16.60;46.30;;;;;;8330063;28;19984;-46
2022/11/26 14:34:47;;;;;;;;;;;16.60;46.30;;;;;;8330480;28;19939;-45
2022/11/26 14:39:06;;;;;;;;;;;16.60;46.20;;;;;;8330313;28;20001;-46
2022/11/26 14:43:13;;;;;;;;;;;16.60;46.20;;;;;;8329862;28;20341;-45
2022/11/26 14:47:16;;;;;;;;;;;16.60;46.30;;;;;;8330103;28;19917;-46
2022/11/26 14:51:20;;;;;;;;;;;16.60;46.30;;;;;;8329792;28;19948;-45
2022/11/26 14:55:23;;;;;;;;;;;16.60;46.30;;;;;;8329438;28;19917;-46
2022/11/26 14:59:23;;;;;;;;;;;16.60;46.30;;;;;;8334978;28;19929;-47
2022/11/26 15:03:24;;;;;;;;;;;16.60;46.30;;;;;;8336564;28;20286;-45
2022/11/26 15:07:25;;;;;;;;;;;16.60;46.30;;;;;;8335581;28;19975;-47
2022/11/26 15:11:26;;;;;;;;;;;16.60;46.40;;;;;;8336109;28;19991;-45
2022/11/26 15:15:26;;;;;;;;;;;16.60;46.30;;;;;;8335868;28;19918;-44
2022/11/26 15:19:30;;;;;;;;;;;16.60;46.30;;;;;;8335697;28;19988;-46
2022/11/26 15:23:34;;;;;;;;;;;16.60;46.30;;;;;;8336243;28;19921;-46
2022/11/26 15:27:39;;;;;;;;;;;16.60;46.30;;;;;;8335330;28;20382;-46
2022/11/26 15:31:40;;;;;;;;;;;16.60;46.30;;;;;;8335816;28;20086;-45
2022/11/26 15:35:42;;;;;;;;;;;16.60;46.30;;;;;;8335600;28;19971;-44
2022/11/26 15:39:42;;;;;;;;;;;16.60;46.30;;;;;;8334860;28;19917;-44
2022/11/26 15:43:50;;;;;;;;;;;16.60;46.30;;;;;;8335734;28;19917;-44
2022/11/26 15:47:51;;;;;;;;;;;16.60;46.30;;;;;;8335294;28;19963;-45
2022/11/26 15:51:53;;;;;;;;;;;16.60;46.30;;;;;;8334703;28;19917;-45
2022/11/26 15:55:54;;;;;;;;;;;16.60;46.30;;;;;;8334787;28;19917;-46
2022/11/26 16:00:00;;;;;;;;;;;16.60;46.30;;;;;;8334548;28;19987;-45
2022/11/26 16:04:04;;;;;;;;;;;16.60;46.30;;;;;;8334394;28;19913;-46
2022/11/26 16:08:25;;;;;;;;;;;16.60;46.30;;;;;;8333663;28;20496;-47
2022/11/26 16:12:33;;;;;;;;;;;16.60;46.30;;;;;;8334272;28;19917;-45
2022/11/26 16:16:33;;;;;;;;;;;16.60;46.30;;;;;;8334297;28;19917;-45
2022/11/26 16:20:34;;;;;;;;;;;16.60;46.40;;;;;;8333925;28;19967;-45
2022/11/26 16:24:38;;;;;;;;;;;16.50;46.30;;;;;;8333399;28;19921;-44
2022/11/26 16:28:39;;;;;;;;;;;16.50;46.30;;;;;;8334030;28;19923;-45
2022/11/26 16:32:40;;;;;;;;;;;16.60;46.30;;;;;;8334079;28;19917;-45
2022/11/26 16:36:40;;;;;;;;;;;16.50;46.30;;;;;;8333097;28;19918;-45
2022/11/26 16:40:43;;;;;;;;;;;16.50;46.30;;;;;;8333611;28;19925;-45
2022/11/26 16:44:43;;;;;;;;;;;16.50;46.30;;;;;;8333348;28;19928;-44
2022/11/26 16:48:44;;;;;;;;;;;16.50;46.30;;;;;;8333141;28;20252;-43
2022/11/26 16:52:45;;;;;;;;;;;16.50;46.40;;;;;;8333149;28;19917;-46
2022/11/26 16:56:45;;;;;;;;;;;16.50;46.40;;;;;;8333247;28;19921;-45
2022/11/26 17:00:46;;;;;;;;;;;16.50;46.30;;;;;;8332357;28;20023;-44
2022/11/26 17:04:46;;;;;;;;;;;16.50;46.40;;;;;;8332088;28;19913;-45
2022/11/26 17:08:47;;;;;;;;;;;16.50;46.40;;;;;;8300061;28;20032;-45
2022/11/26 17:12:48;;;;;;;;;;;16.50;46.30;;;;;;8326342;28;20430;-45
2022/11/26 17:16:49;;;;;;;;;;;16.50;46.30;;;;;;8332455;28;19917;-45
2022/11/26 17:20:50;;;;;;;;;;;16.50;46.90;;;;;;8331934;28;19925;-45
2022/11/26 17:24:51;;;;;;;;;;;16.50;46.30;;;;;;8331799;28;19996;-46
2022/11/26 17:28:51;;;;;;;;;;;16.50;46.30;;;;;;8332162;28;19920;-44
2022/11/26 17:32:52;;;;;;;;;;;16.50;46.30;;;;;;8331884;28;19940;-44
2022/11/26 17:36:56;;;;;;;;;;;16.50;46.30;;;;;;8331345;28;19921;-46
2022/11/26 17:40:56;;;;;;;;;;;16.50;46.30;;;;;;8331842;28;19929;-44
2022/11/26 17:44:56;;;;;;;;;;;16.50;46.30;;;;;;8331551;28;20358;-45
2022/11/26 17:48:57;;;;;;;;;;;16.50;46.20;;;;;;8331158;28;19913;-46
2022/11/26 17:52:57;;;;;;;;;;;16.50;46.20;;;;;;8331610;28;19925;-45
2022/11/26 17:56:58;;;;;;;;;;;16.50;46.30;;;;;;8331028;28;19924;-45
2022/11/26 18:00:58;;;;;;;;;;;16.50;46.20;;;;;;8330440;28;19979;-45
2022/11/26 18:04:59;;;;;;;;;;;16.50;46.20;;;;;;8330892;28;19917;-45
2022/11/26 18:08:59;;;;;;;;;;;16.50;46.20;;;;;;8330832;28;19960;-45
2022/11/26 18:13:00;;;;;;;;;;;16.50;46.20;;;;;;8330207;28;19976;-44
2022/11/26 18:17:01;;;;;;;;;;;16.50;46.10;;;;;;8330570;28;19921;-45
2022/11/26 18:21:01;;;;;;;;;;;16.40;46.10;;;;;;8330501;28;19925;-44
2022/11/26 18:25:02;;;;;;;;;;;16.50;46.10;;;;;;8330075;28;19913;-44
2022/11/26 18:29:02;;;;;;;;;;;16.50;46.00;;;;;;8330562;28;19914;-43
2022/11/26 18:33:03;;;;;;;;;;;16.50;45.90;;;;;;8329921;28;20007;-43
2022/11/26 18:37:03;;;;;;;;;;;16.50;46.50;;;;;;8329816;28;20004;-44
2022/11/26 18:41:05;;;;;;;;;;;16.50;46.00;;;;;;8330119;28;20087;-44
2022/11/26 18:45:07;;;;;;;;;;;16.50;46.00;;;;;;8330517;28;19919;-45
2022/11/26 18:49:08;;;;;;;;;;;16.50;46.00;;;;;;8329796;28;20006;-44
2022/11/26 18:53:08;;;;;;;;;;;16.50;46.00;;;;;;8329918;28;19917;-47
2022/11/26 18:57:09;;;;;;;;;;;16.40;46.00;;;;;;8334069;28;19948;-44
2022/11/26 19:01:13;;;;;;;;;;;16.40;46.00;;;;;;8329278;28;20423;-44
2022/11/26 19:05:14;;;;;;;;;;;16.40;46.00;;;;;;8330019;28;19967;-45
2022/11/26 19:09:16;;;;;;;;;;;16.40;46.00;;;;;;8329551;28;19921;-44
2022/11/26 19:13:16;;;;;;;;;;;16.40;46.00;;;;;;8329262;28;20290;-45
2022/11/26 19:17:17;;;;;;;;;;;16.40;45.90;;;;;;8329591;28;19960;-45
2022/11/26 19:21:19;;;;;;;;;;;16.40;46.00;;;;;;8329478;28;19933;-44
2022/11/26 19:25:19;;;;;;;;;;;16.40;45.90;;;;;;8329271;28;19913;-44
2022/11/26 19:29:20;;;;;;;;;;;16.40;46.00;;;;;;8329438;28;20000;-44
2022/11/26 19:33:20;;;;;;;;;;;16.40;45.90;;;;;;8329554;28;19917;-45
2022/11/26 19:37:21;;;;;;;;;;;16.40;46.50;;;;;;8328711;28;19917;-44
2022/11/26 19:41:21;;;;;;;;;;;16.40;45.90;;;;;;8329167;28;20024;-44
2022/11/26 19:45:22;;;;;;;;;;;16.40;45.90;;;;;;8334029;28;19913;-42
2022/11/26 19:49:23;;;;;;;;;;;16.30;45.90;;;;;;8317049;28;20451;-45
2022/11/26 19:53:23;;;;;;;;;;;16.30;45.90;;;;;;8325363;28;19921;-44
2022/11/26 19:57:24;;;;;;;;;;;16.40;45.90;;;;;;8334909;28;19924;-43
2022/11/26 20:01:26;;;;;;;;;;;16.40;45.80;;;;;;8334268;28;19971;-43
2022/11/26 20:05:26;;;;;;;;;;;16.30;45.80;;;;;;8333643;28;19948;-44
2022/11/26 20:09:27;;;;;;;;;;;16.40;45.80;;;;;;8334025;28;19928;-43
2022/11/26 20:13:27;;;;;;;;;;;16.30;45.80;;;;;;8334666;28;19917;-43
2022/11/26 20:17:27;;;;;;;;;;;16.30;45.80;;;;;;8334277;28;20003;-44
2022/11/26 20:21:31;;;;;;;;;;;16.30;45.90;;;;;;8333504;28;19964;-41
2022/11/26 20:25:35;;;;;;;;;;;16.30;45.80;;;;;;8334110;28;19924;-44
2022/11/26 20:29:35;;;;;;;;;;;16.30;45.80;;;;;;8334047;28;20060;-44
2022/11/26 20:33:36;;;;;;;;;;;16.30;45.80;;;;;;8333393;28;20038;-44
2022/11/26 20:37:36;;;;;;;;;;;16.30;45.80;;;;;;8333830;28;19924;-43
2022/11/26 20:41:37;;;;;;;;;;;16.30;46.30;;;;;;8333608;28;19925;-45
2022/11/26 20:45:37;;;;;;;;;;;16.30;45.70;;;;;;8332928;28;19943;-43
2022/11/26 20:49:38;;;;;;;;;;;16.40;45.80;;;;;;8333291;28;19971;-44
2022/11/26 20:53:39;;;;;;;;;;;16.30;45.80;;;;;;8333151;28;20000;-44
2022/11/26 20:57:39;;;;;;;;;;;16.30;45.80;;;;;;8331898;28;19928;-44
2022/11/26 21:01:40;;;;;;;;;;;16.40;45.80;;;;;;8333102;28;19925;-44
2022/11/26 21:05:40;;;;;;;;;;;16.30;45.70;;;;;;8332962;28;20003;-43
2022/11/26 21:09:41;;;;;;;;;;;16.30;45.60;;;;;;8332065;28;19921;-43
2022/11/26 21:13:41;;;;;;;;;;;16.30;45.70;;;;;;8332714;28;19917;-43
2022/11/26 21:17:42;;;;;;;;;;;16.30;45.60;;;;;;8332282;28;19924;-42
2022/11/26 21:21:42;;;;;;;;;;;16.30;45.60;;;;;;8331613;28;19933;-43
2022/11/26 21:25:43;;;;;;;;;;;16.30;45.60;;;;;;8332209;28;19913;-43
2022/11/26 21:29:45;;;;;;;;;;;16.30;45.60;;;;;;8332147;28;19921;-43
2022/11/26 21:33:46;;;;;;;;;;;16.30;45.60;;;;;;8331658;28;19917;-44
2022/11/26 21:37:46;;;;;;;;;;;16.30;45.60;;;;;;8332187;28;19917;-43
2022/11/26 21:41:46;;;;;;;;;;;16.30;45.60;;;;;;8331475;28;20378;-43
2022/11/26 21:45:47;;;;;;;;;;;16.20;46.10;;;;;;8331204;28;19955;-44
2022/11/26 21:49:47;;;;;;;;;;;16.20;45.60;;;;;;8331267;28;19917;-43
2022/11/26 21:53:48;;;;;;;;;;;16.20;45.50;;;;;;8331283;28;19921;-43
2022/11/26 21:57:49;;;;;;;;;;;16.20;45.50;;;;;;8330692;28;19917;-43
2022/11/26 22:01:49;;;;;;;;;;;16.20;45.50;;;;;;8331125;28;20409;-44
2022/11/26 22:05:49;;;;;;;;;;;16.20;45.50;;;;;;8330642;28;19996;-43
2022/11/26 22:09:50;;;;;;;;;;;16.20;45.60;;;;;;8329772;28;19946;-44
2022/11/26 22:13:51;;;;;;;;;;;16.20;45.60;;;;;;8330957;28;19966;-42
2022/11/26 22:17:51;;;;;;;;;;;16.20;45.60;;;;;;8330586;28;19917;-42
2022/11/26 22:21:52;;;;;;;;;;;16.20;45.50;;;;;;8329986;28;20285;-43
2022/11/26 22:25:52;;;;;;;;;;;16.20;45.50;;;;;;8330765;28;20297;-43
2022/11/26 22:29:53;;;;;;;;;;;16.20;45.40;;;;;;8330249;28;20362;-43
2022/11/26 22:33:54;;;;;;;;;;;16.20;45.40;;;;;;8329963;28;19945;-44
2022/11/26 22:37:55;;;;;;;;;;;16.20;45.40;;;;;;8330212;28;20401;-43
2022/11/26 22:41:55;;;;;;;;;;;16.20;45.40;;;;;;8330267;28;19921;-44
2022/11/26 22:45:56;;;;;;;;;;;16.20;45.40;;;;;;8329920;28;19920;-43
2022/11/26 22:49:56;;;;;;;;;;;16.20;45.30;;;;;;8330240;28;20299;-43
2022/11/26 22:53:58;;;;;;;;;;;16.20;45.90;;;;;;8330119;28;19917;-44
2022/11/26 22:57:58;;;;;;;;;;;16.20;45.30;;;;;;8329458;28;20377;-43
2022/11/26 23:01:59;;;;;;;;;;;16.20;45.30;;;;;;8330100;28;19963;-43
2022/11/26 23:06:07;;;;;;;;;;;16.20;45.30;;;;;;8362887;28;19920;-44
2022/11/26 23:10:07;;;;;;;;;;;16.20;45.20;;;;;;8357880;28;19926;-43
2022/11/26 23:14:10;;;;;;;;;;;16.20;45.30;;;;;;8329595;28;19952;-43
2022/11/26 23:18:11;;;;;;;;;;;16.20;45.30;;;;;;8330864;28;19921;-43
2022/11/26 23:22:12;;;;;;;;;;;16.20;45.30;;;;;;8335287;28;20338;-43
2022/11/26 23:26:14;;;;;;;;;;;16.20;45.30;;;;;;8336100;28;19917;-43
2022/11/26 23:30:14;;;;;;;;;;;16.20;45.30;;;;;;8335863;28;19937;-44